sensor_id;sensor_type;location;lat;lon;timestamp;P1;durP1;ratioP1;P2;durP2;ratioP2
769;SDS011;368;48.698;9.116;2022-12-16T00:00:21;44.28;;;30.55;;
769;SDS011;368;48.698;9.116;2022-12-16T00:02:48;46.80;;;32.58;;
769;SDS011;368;48.698;9.116;2022-12-16T00:05:17;46.42;;;31.58;;
769;SDS011;368;48.698;9.116;2022-12-16T00:07:44;52.65;;;34.17;;
769;SDS011;368;48.698;9.116;2022-12-16T00:10:11;47.30;;;31.42;;
769;SDS011;368;48.698;9.116;2022-12-16T00:12:38;48.38;;;33.28;;
769;SDS011;368;48.698;9.116;2022-12-16T00:15:05;48.60;;;32.92;;
769;SDS011;368;48.698;9.116;2022-12-16T00:17:32;48.30;;;32.28;;
769;SDS011;368;48.698;9.116;2022-12-16T00:20:00;52.10;;;33.33;;
769;SDS011;368;48.698;9.116;2022-12-16T00:22:29;52.97;;;33.33;;
769;SDS011;368;48.698;9.116;2022-12-16T00:24:56;44.17;;;31.65;;
769;SDS011;368;48.698;9.116;2022-12-16T00:27:22;46.45;;;31.58;;
769;SDS011;368;48.698;9.116;2022-12-16T00:29:49;54.47;;;35.40;;
769;SDS011;368;48.698;9.116;2022-12-16T00:32:16;54.33;;;36.13;;
769;SDS011;368;48.698;9.116;2022-12-16T00:34:43;51.10;;;33.42;;
769;SDS011;368;48.698;9.116;2022-12-16T00:37:09;45.00;;;32.42;;
769;SDS011;368;48.698;9.116;2022-12-16T00:39:38;49.50;;;32.25;;
769;SDS011;368;48.698;9.116;2022-12-16T00:42:05;47.45;;;31.80;;
769;SDS011;368;48.698;9.116;2022-12-16T00:44:32;46.47;;;32.10;;
769;SDS011;368;48.698;9.116;2022-12-16T00:46:58;45.47;;;30.70;;
769;SDS011;368;48.698;9.116;2022-12-16T00:49:25;49.55;;;31.85;;
769;SDS011;368;48.698;9.116;2022-12-16T00:51:52;52.47;;;32.50;;
769;SDS011;368;48.698;9.116;2022-12-16T00:54:19;43.50;;;32.63;;
769;SDS011;368;48.698;9.116;2022-12-16T00:56:47;48.08;;;33.10;;
769;SDS011;368;48.698;9.116;2022-12-16T00:59:14;52.50;;;34.80;;
769;SDS011;368;48.698;9.116;2022-12-16T01:01:42;50.85;;;33.92;;
769;SDS011;368;48.698;9.116;2022-12-16T01:04:09;50.72;;;34.40;;
769;SDS011;368;48.698;9.116;2022-12-16T01:06:35;50.95;;;31.92;;
769;SDS011;368;48.698;9.116;2022-12-16T01:09:02;53.30;;;33.15;;
769;SDS011;368;48.698;9.116;2022-12-16T01:11:29;49.90;;;31.40;;
769;SDS011;368;48.698;9.116;2022-12-16T01:13:57;48.15;;;32.35;;
769;SDS011;368;48.698;9.116;2022-12-16T01:16:24;53.72;;;32.60;;
769;SDS011;368;48.698;9.116;2022-12-16T01:18:51;54.22;;;35.30;;
769;SDS011;368;48.698;9.116;2022-12-16T01:21:19;49.00;;;33.67;;
769;SDS011;368;48.698;9.116;2022-12-16T01:23:46;54.33;;;35.70;;
769;SDS011;368;48.698;9.116;2022-12-16T01:26:14;51.58;;;35.20;;
769;SDS011;368;48.698;9.116;2022-12-16T01:28:43;55.15;;;35.72;;
769;SDS011;368;48.698;9.116;2022-12-16T01:31:11;56.75;;;35.13;;
769;SDS011;368;48.698;9.116;2022-12-16T01:33:39;53.20;;;32.97;;
769;SDS011;368;48.698;9.116;2022-12-16T01:36:07;55.70;;;33.70;;
769;SDS011;368;48.698;9.116;2022-12-16T01:38:34;54.05;;;33.40;;
769;SDS011;368;48.698;9.116;2022-12-16T01:41:02;53.33;;;33.97;;
769;SDS011;368;48.698;9.116;2022-12-16T01:43:30;55.63;;;34.33;;
769;SDS011;368;48.698;9.116;2022-12-16T01:45:59;48.90;;;35.25;;
769;SDS011;368;48.698;9.116;2022-12-16T01:48:33;50.95;;;36.13;;
769;SDS011;368;48.698;9.116;2022-12-16T01:51:06;47.35;;;33.63;;
769;SDS011;368;48.698;9.116;2022-12-16T01:53:36;55.83;;;35.58;;
769;SDS011;368;48.698;9.116;2022-12-16T01:56:05;46.42;;;33.22;;
769;SDS011;368;48.698;9.116;2022-12-16T01:58:33;54.72;;;31.98;;
769;SDS011;368;48.698;9.116;2022-12-16T02:01:04;48.55;;;31.17;;
769;SDS011;368;48.698;9.116;2022-12-16T02:03:33;48.47;;;33.42;;
769;SDS011;368;48.698;9.116;2022-12-16T02:06:02;54.50;;;34.20;;
769;SDS011;368;48.698;9.116;2022-12-16T02:08:31;56.60;;;34.40;;
769;SDS011;368;48.698;9.116;2022-12-16T02:11:01;49.70;;;31.92;;
769;SDS011;368;48.698;9.116;2022-12-16T02:13:38;52.08;;;33.67;;
769;SDS011;368;48.698;9.116;2022-12-16T02:16:14;50.20;;;32.60;;
769;SDS011;368;48.698;9.116;2022-12-16T02:18:49;49.40;;;32.45;;
769;SDS011;368;48.698;9.116;2022-12-16T02:21:25;53.20;;;31.23;;
769;SDS011;368;48.698;9.116;2022-12-16T02:24:15;47.55;;;33.65;;
769;SDS011;368;48.698;9.116;2022-12-16T02:33:21;48.75;;;32.97;;
769;SDS011;368;48.698;9.116;2022-12-16T02:36:05;48.97;;;33.80;;
769;SDS011;368;48.698;9.116;2022-12-16T02:38:38;49.50;;;32.58;;
769;SDS011;368;48.698;9.116;2022-12-16T02:41:11;54.75;;;34.05;;
769;SDS011;368;48.698;9.116;2022-12-16T02:43:49;41.05;;;31.75;;
769;SDS011;368;48.698;9.116;2022-12-16T02:46:22;44.63;;;29.65;;
769;SDS011;368;48.698;9.116;2022-12-16T02:48:53;47.50;;;30.60;;
769;SDS011;368;48.698;9.116;2022-12-16T02:51:20;47.25;;;31.23;;
769;SDS011;368;48.698;9.116;2022-12-16T02:53:49;43.55;;;30.95;;
769;SDS011;368;48.698;9.116;2022-12-16T02:56:27;44.40;;;31.08;;
769;SDS011;368;48.698;9.116;2022-12-16T02:59:05;48.38;;;31.73;;
769;SDS011;368;48.698;9.116;2022-12-16T03:01:43;45.67;;;30.25;;
769;SDS011;368;48.698;9.116;2022-12-16T03:04:18;43.58;;;29.48;;
769;SDS011;368;48.698;9.116;2022-12-16T03:06:51;44.00;;;30.33;;
769;SDS011;368;48.698;9.116;2022-12-16T03:09:20;48.70;;;30.27;;
769;SDS011;368;48.698;9.116;2022-12-16T03:11:49;45.60;;;30.95;;
769;SDS011;368;48.698;9.116;2022-12-16T03:14:18;50.10;;;31.33;;
769;SDS011;368;48.698;9.116;2022-12-16T03:16:48;47.80;;;32.60;;
769;SDS011;368;48.698;9.116;2022-12-16T03:19:16;37.90;;;27.30;;
769;SDS011;368;48.698;9.116;2022-12-16T03:21:47;50.55;;;32.85;;
769;SDS011;368;48.698;9.116;2022-12-16T03:24:19;43.33;;;29.33;;
769;SDS011;368;48.698;9.116;2022-12-16T03:26:48;43.40;;;28.55;;
769;SDS011;368;48.698;9.116;2022-12-16T03:29:23;39.67;;;27.50;;
769;SDS011;368;48.698;9.116;2022-12-16T03:31:54;38.38;;;28.20;;
769;SDS011;368;48.698;9.116;2022-12-16T03:34:24;42.08;;;28.98;;
769;SDS011;368;48.698;9.116;2022-12-16T03:37:01;44.13;;;28.95;;
769;SDS011;368;48.698;9.116;2022-12-16T03:39:30;39.88;;;27.55;;
769;SDS011;368;48.698;9.116;2022-12-16T03:41:58;36.05;;;25.08;;
769;SDS011;368;48.698;9.116;2022-12-16T03:44:27;41.35;;;28.00;;
769;SDS011;368;48.698;9.116;2022-12-16T03:46:56;38.92;;;29.25;;
769;SDS011;368;48.698;9.116;2022-12-16T03:49:23;36.50;;;27.15;;
769;SDS011;368;48.698;9.116;2022-12-16T03:51:50;41.92;;;28.25;;
769;SDS011;368;48.698;9.116;2022-12-16T03:54:18;38.28;;;26.02;;
769;SDS011;368;48.698;9.116;2022-12-16T03:56:45;41.53;;;27.80;;
769;SDS011;368;48.698;9.116;2022-12-16T03:59:12;37.60;;;26.65;;
769;SDS011;368;48.698;9.116;2022-12-16T04:01:39;40.33;;;27.80;;
769;SDS011;368;48.698;9.116;2022-12-16T04:04:07;39.72;;;27.50;;
769;SDS011;368;48.698;9.116;2022-12-16T04:06:34;41.50;;;28.45;;
769;SDS011;368;48.698;9.116;2022-12-16T04:09:00;51.83;;;34.17;;
769;SDS011;368;48.698;9.116;2022-12-16T04:11:27;44.53;;;31.08;;
769;SDS011;368;48.698;9.116;2022-12-16T04:14:11;43.83;;;29.02;;
769;SDS011;368;48.698;9.116;2022-12-16T04:16:55;46.72;;;34.95;;
769;SDS011;368;48.698;9.116;2022-12-16T04:19:42;47.35;;;37.80;;
769;SDS011;368;48.698;9.116;2022-12-16T04:22:30;37.25;;;26.08;;
769;SDS011;368;48.698;9.116;2022-12-16T04:25:18;35.53;;;25.00;;
769;SDS011;368;48.698;9.116;2022-12-16T04:27:47;41.30;;;25.83;;
769;SDS011;368;48.698;9.116;2022-12-16T04:30:14;36.28;;;26.83;;
769;SDS011;368;48.698;9.116;2022-12-16T04:32:44;37.05;;;26.10;;
769;SDS011;368;48.698;9.116;2022-12-16T04:35:31;37.20;;;24.63;;
769;SDS011;368;48.698;9.116;2022-12-16T04:38:15;38.92;;;24.88;;
769;SDS011;368;48.698;9.116;2022-12-16T04:41:00;39.00;;;27.70;;
769;SDS011;368;48.698;9.116;2022-12-16T04:43:44;33.22;;;25.95;;
769;SDS011;368;48.698;9.116;2022-12-16T04:46:28;35.13;;;24.00;;
769;SDS011;368;48.698;9.116;2022-12-16T04:49:12;32.70;;;22.25;;
769;SDS011;368;48.698;9.116;2022-12-16T04:51:57;30.05;;;22.15;;
769;SDS011;368;48.698;9.116;2022-12-16T04:54:41;33.78;;;24.60;;
769;SDS011;368;48.698;9.116;2022-12-16T04:57:26;34.90;;;23.77;;
769;SDS011;368;48.698;9.116;2022-12-16T05:00:10;35.28;;;22.65;;
769;SDS011;368;48.698;9.116;2022-12-16T05:02:55;35.80;;;22.67;;
769;SDS011;368;48.698;9.116;2022-12-16T05:05:40;29.90;;;21.65;;
769;SDS011;368;48.698;9.116;2022-12-16T05:08:26;35.35;;;24.65;;
769;SDS011;368;48.698;9.116;2022-12-16T05:11:11;34.38;;;21.88;;
769;SDS011;368;48.698;9.116;2022-12-16T05:13:55;31.73;;;22.20;;
769;SDS011;368;48.698;9.116;2022-12-16T05:16:41;33.15;;;22.42;;
769;SDS011;368;48.698;9.116;2022-12-16T05:19:25;43.80;;;23.95;;
769;SDS011;368;48.698;9.116;2022-12-16T05:22:10;36.17;;;23.02;;
769;SDS011;368;48.698;9.116;2022-12-16T05:24:56;33.03;;;22.88;;
769;SDS011;368;48.698;9.116;2022-12-16T05:27:40;29.77;;;21.85;;
769;SDS011;368;48.698;9.116;2022-12-16T05:30:24;31.27;;;21.60;;
769;SDS011;368;48.698;9.116;2022-12-16T05:33:08;31.17;;;22.15;;
769;SDS011;368;48.698;9.116;2022-12-16T05:35:52;30.27;;;21.35;;
769;SDS011;368;48.698;9.116;2022-12-16T05:38:37;29.58;;;22.30;;
769;SDS011;368;48.698;9.116;2022-12-16T05:41:22;31.17;;;22.42;;
769;SDS011;368;48.698;9.116;2022-12-16T05:44:06;27.02;;;22.40;;
769;SDS011;368;48.698;9.116;2022-12-16T05:46:50;28.83;;;21.05;;
769;SDS011;368;48.698;9.116;2022-12-16T05:49:34;27.58;;;19.75;;
769;SDS011;368;48.698;9.116;2022-12-16T05:52:19;26.08;;;20.25;;
769;SDS011;368;48.698;9.116;2022-12-16T05:55:04;36.83;;;25.05;;
769;SDS011;368;48.698;9.116;2022-12-16T05:57:50;30.55;;;22.48;;
769;SDS011;368;48.698;9.116;2022-12-16T06:00:49;28.08;;;21.02;;
769;SDS011;368;48.698;9.116;2022-12-16T06:03:33;29.95;;;21.20;;
769;SDS011;368;48.698;9.116;2022-12-16T06:06:18;32.65;;;20.23;;
769;SDS011;368;48.698;9.116;2022-12-16T06:09:02;27.23;;;20.73;;
769;SDS011;368;48.698;9.116;2022-12-16T06:11:46;27.77;;;20.58;;
769;SDS011;368;48.698;9.116;2022-12-16T06:14:34;27.60;;;19.25;;
769;SDS011;368;48.698;9.116;2022-12-16T06:17:33;26.45;;;20.27;;
769;SDS011;368;48.698;9.116;2022-12-16T06:20:17;25.38;;;19.02;;
769;SDS011;368;48.698;9.116;2022-12-16T06:23:02;23.60;;;17.95;;
769;SDS011;368;48.698;9.116;2022-12-16T06:25:47;26.38;;;18.38;;
769;SDS011;368;48.698;9.116;2022-12-16T06:28:31;31.90;;;21.85;;
769;SDS011;368;48.698;9.116;2022-12-16T06:31:16;30.58;;;22.02;;
769;SDS011;368;48.698;9.116;2022-12-16T06:34:00;27.05;;;19.10;;
769;SDS011;368;48.698;9.116;2022-12-16T06:36:45;23.98;;;18.33;;
769;SDS011;368;48.698;9.116;2022-12-16T06:39:29;38.45;;;23.60;;
769;SDS011;368;48.698;9.116;2022-12-16T06:42:13;27.98;;;19.92;;
769;SDS011;368;48.698;9.116;2022-12-16T06:44:57;26.08;;;18.38;;
769;SDS011;368;48.698;9.116;2022-12-16T06:47:42;31.02;;;19.20;;
769;SDS011;368;48.698;9.116;2022-12-16T06:50:27;24.40;;;18.48;;
769;SDS011;368;48.698;9.116;2022-12-16T06:53:11;35.03;;;22.00;;
769;SDS011;368;48.698;9.116;2022-12-16T06:55:55;27.75;;;19.10;;
769;SDS011;368;48.698;9.116;2022-12-16T06:58:48;25.00;;;18.02;;
769;SDS011;368;48.698;9.116;2022-12-16T07:01:33;22.25;;;16.52;;
769;SDS011;368;48.698;9.116;2022-12-16T07:04:18;26.83;;;17.50;;
769;SDS011;368;48.698;9.116;2022-12-16T07:07:03;25.02;;;18.95;;
769;SDS011;368;48.698;9.116;2022-12-16T07:09:48;24.65;;;17.95;;
769;SDS011;368;48.698;9.116;2022-12-16T07:12:32;28.15;;;17.52;;
769;SDS011;368;48.698;9.116;2022-12-16T07:15:16;20.80;;;15.15;;
769;SDS011;368;48.698;9.116;2022-12-16T07:18:00;23.70;;;17.13;;
769;SDS011;368;48.698;9.116;2022-12-16T07:20:46;23.92;;;18.25;;
769;SDS011;368;48.698;9.116;2022-12-16T07:23:30;28.58;;;20.75;;
769;SDS011;368;48.698;9.116;2022-12-16T07:26:14;21.30;;;15.15;;
769;SDS011;368;48.698;9.116;2022-12-16T07:28:58;21.27;;;15.25;;
769;SDS011;368;48.698;9.116;2022-12-16T07:31:45;22.60;;;16.55;;
769;SDS011;368;48.698;9.116;2022-12-16T07:34:29;22.60;;;16.88;;
769;SDS011;368;48.698;9.116;2022-12-16T07:37:15;20.83;;;15.32;;
769;SDS011;368;48.698;9.116;2022-12-16T07:39:59;22.35;;;15.93;;
769;SDS011;368;48.698;9.116;2022-12-16T07:42:44;22.25;;;16.63;;
769;SDS011;368;48.698;9.116;2022-12-16T07:45:29;22.88;;;16.33;;
769;SDS011;368;48.698;9.116;2022-12-16T07:48:13;21.35;;;15.45;;
769;SDS011;368;48.698;9.116;2022-12-16T07:50:57;22.55;;;15.73;;
769;SDS011;368;48.698;9.116;2022-12-16T07:53:42;20.05;;;15.20;;
769;SDS011;368;48.698;9.116;2022-12-16T07:56:26;25.45;;;16.77;;
769;SDS011;368;48.698;9.116;2022-12-16T07:59:11;18.98;;;15.18;;
769;SDS011;368;48.698;9.116;2022-12-16T08:01:55;16.45;;;13.40;;
769;SDS011;368;48.698;9.116;2022-12-16T08:04:39;16.98;;;13.48;;
769;SDS011;368;48.698;9.116;2022-12-16T08:07:23;22.17;;;14.43;;
769;SDS011;368;48.698;9.116;2022-12-16T08:10:09;20.30;;;14.25;;
769;SDS011;368;48.698;9.116;2022-12-16T08:12:57;20.27;;;15.38;;
769;SDS011;368;48.698;9.116;2022-12-16T08:15:42;18.42;;;15.52;;
769;SDS011;368;48.698;9.116;2022-12-16T08:18:27;23.23;;;15.32;;
769;SDS011;368;48.698;9.116;2022-12-16T08:21:11;23.00;;;18.30;;
769;SDS011;368;48.698;9.116;2022-12-16T08:23:55;21.83;;;15.13;;
769;SDS011;368;48.698;9.116;2022-12-16T08:26:41;20.27;;;14.35;;
769;SDS011;368;48.698;9.116;2022-12-16T08:29:26;22.20;;;18.10;;
769;SDS011;368;48.698;9.116;2022-12-16T08:32:11;15.30;;;11.93;;
769;SDS011;368;48.698;9.116;2022-12-16T08:34:55;16.23;;;11.35;;
769;SDS011;368;48.698;9.116;2022-12-16T08:37:40;17.88;;;12.30;;
769;SDS011;368;48.698;9.116;2022-12-16T08:40:24;19.73;;;12.60;;
769;SDS011;368;48.698;9.116;2022-12-16T08:43:09;16.98;;;11.85;;
769;SDS011;368;48.698;9.116;2022-12-16T08:45:54;18.23;;;11.20;;
769;SDS011;368;48.698;9.116;2022-12-16T08:48:39;16.67;;;12.80;;
769;SDS011;368;48.698;9.116;2022-12-16T08:51:23;19.42;;;13.10;;
769;SDS011;368;48.698;9.116;2022-12-16T08:54:16;18.63;;;12.35;;
769;SDS011;368;48.698;9.116;2022-12-16T08:57:01;23.58;;;14.88;;
769;SDS011;368;48.698;9.116;2022-12-16T08:59:46;21.55;;;12.63;;
769;SDS011;368;48.698;9.116;2022-12-16T09:02:30;14.77;;;10.93;;
769;SDS011;368;48.698;9.116;2022-12-16T09:05:15;17.95;;;11.90;;
769;SDS011;368;48.698;9.116;2022-12-16T09:07:59;18.05;;;14.57;;
769;SDS011;368;48.698;9.116;2022-12-16T09:10:44;17.40;;;12.60;;
769;SDS011;368;48.698;9.116;2022-12-16T09:13:33;19.23;;;12.57;;
769;SDS011;368;48.698;9.116;2022-12-16T09:16:19;18.05;;;12.02;;
769;SDS011;368;48.698;9.116;2022-12-16T09:19:03;20.25;;;12.30;;
769;SDS011;368;48.698;9.116;2022-12-16T09:21:48;16.63;;;11.90;;
769;SDS011;368;48.698;9.116;2022-12-16T09:24:32;14.13;;;11.32;;
769;SDS011;368;48.698;9.116;2022-12-16T09:27:16;15.77;;;11.15;;
769;SDS011;368;48.698;9.116;2022-12-16T09:30:00;16.85;;;12.10;;
769;SDS011;368;48.698;9.116;2022-12-16T09:32:45;17.45;;;10.13;;
769;SDS011;368;48.698;9.116;2022-12-16T09:35:30;15.68;;;10.40;;
769;SDS011;368;48.698;9.116;2022-12-16T09:38:14;17.30;;;13.18;;
769;SDS011;368;48.698;9.116;2022-12-16T09:40:59;20.05;;;14.23;;
769;SDS011;368;48.698;9.116;2022-12-16T09:44:04;15.98;;;12.02;;
769;SDS011;368;48.698;9.116;2022-12-16T09:46:58;13.80;;;10.75;;
769;SDS011;368;48.698;9.116;2022-12-16T09:49:48;15.02;;;10.15;;
769;SDS011;368;48.698;9.116;2022-12-16T09:52:36;19.67;;;13.80;;
769;SDS011;368;48.698;9.116;2022-12-16T09:55:26;15.77;;;10.77;;
769;SDS011;368;48.698;9.116;2022-12-16T09:58:15;18.00;;;11.77;;
769;SDS011;368;48.698;9.116;2022-12-16T10:01:02;15.85;;;10.00;;
769;SDS011;368;48.698;9.116;2022-12-16T10:03:46;14.48;;;10.60;;
769;SDS011;368;48.698;9.116;2022-12-16T10:06:47;18.30;;;11.27;;
769;SDS011;368;48.698;9.116;2022-12-16T10:09:36;11.55;;;10.15;;
769;SDS011;368;48.698;9.116;2022-12-16T10:12:31;15.97;;;11.80;;
769;SDS011;368;48.698;9.116;2022-12-16T10:15:28;15.38;;;10.70;;
769;SDS011;368;48.698;9.116;2022-12-16T10:18:37;15.17;;;10.70;;
769;SDS011;368;48.698;9.116;2022-12-16T10:21:31;14.20;;;10.40;;
769;SDS011;368;48.698;9.116;2022-12-16T10:24:23;14.37;;;9.50;;
769;SDS011;368;48.698;9.116;2022-12-16T10:27:15;13.57;;;10.50;;
769;SDS011;368;48.698;9.116;2022-12-16T10:30:02;11.88;;;8.75;;
769;SDS011;368;48.698;9.116;2022-12-16T10:32:49;10.65;;;8.05;;
769;SDS011;368;48.698;9.116;2022-12-16T10:35:35;18.63;;;13.10;;
769;SDS011;368;48.698;9.116;2022-12-16T10:38:26;11.48;;;8.38;;
769;SDS011;368;48.698;9.116;2022-12-16T10:41:19;10.80;;;8.65;;
769;SDS011;368;48.698;9.116;2022-12-16T10:44:11;12.40;;;9.13;;
769;SDS011;368;48.698;9.116;2022-12-16T10:47:06;12.88;;;9.50;;
769;SDS011;368;48.698;9.116;2022-12-16T10:49:55;9.23;;;7.28;;
769;SDS011;368;48.698;9.116;2022-12-16T10:52:48;13.02;;;9.70;;
769;SDS011;368;48.698;9.116;2022-12-16T10:55:38;10.68;;;8.15;;
769;SDS011;368;48.698;9.116;2022-12-16T10:58:34;11.50;;;7.97;;
769;SDS011;368;48.698;9.116;2022-12-16T11:01:26;19.13;;;12.63;;
769;SDS011;368;48.698;9.116;2022-12-16T11:04:30;13.27;;;9.35;;
769;SDS011;368;48.698;9.116;2022-12-16T11:07:25;12.23;;;8.98;;
769;SDS011;368;48.698;9.116;2022-12-16T11:10:24;11.82;;;8.77;;
769;SDS011;368;48.698;9.116;2022-12-16T11:13:10;11.70;;;8.40;;
769;SDS011;368;48.698;9.116;2022-12-16T11:16:06;13.27;;;9.37;;
769;SDS011;368;48.698;9.116;2022-12-16T11:18:53;14.60;;;8.87;;
769;SDS011;368;48.698;9.116;2022-12-16T11:21:37;11.30;;;8.67;;
769;SDS011;368;48.698;9.116;2022-12-16T11:24:21;10.23;;;8.77;;
769;SDS011;368;48.698;9.116;2022-12-16T11:27:09;9.47;;;7.53;;
769;SDS011;368;48.698;9.116;2022-12-16T11:29:57;11.40;;;8.57;;
769;SDS011;368;48.698;9.116;2022-12-16T11:32:45;11.03;;;8.13;;
769;SDS011;368;48.698;9.116;2022-12-16T11:35:32;12.90;;;8.53;;
769;SDS011;368;48.698;9.116;2022-12-16T11:38:20;10.30;;;7.00;;
769;SDS011;368;48.698;9.116;2022-12-16T11:41:09;12.70;;;8.57;;
769;SDS011;368;48.698;9.116;2022-12-16T11:44:00;9.30;;;6.60;;
769;SDS011;368;48.698;9.116;2022-12-16T11:46:46;9.30;;;7.60;;
769;SDS011;368;48.698;9.116;2022-12-16T11:49:35;27.07;;;19.40;;
769;SDS011;368;48.698;9.116;2022-12-16T11:52:20;18.43;;;14.47;;
769;SDS011;368;48.698;9.116;2022-12-16T11:55:16;8.57;;;7.57;;
769;SDS011;368;48.698;9.116;2022-12-16T11:58:04;11.93;;;8.93;;
769;SDS011;368;48.698;9.116;2022-12-16T12:00:59;8.77;;;7.70;;
769;SDS011;368;48.698;9.116;2022-12-16T12:03:49;10.73;;;7.50;;
769;SDS011;368;48.698;9.116;2022-12-16T12:06:39;8.70;;;6.57;;
769;SDS011;368;48.698;9.116;2022-12-16T12:09:35;10.17;;;7.53;;
769;SDS011;368;48.698;9.116;2022-12-16T12:12:26;8.67;;;7.37;;
769;SDS011;368;48.698;9.116;2022-12-16T12:15:21;9.37;;;7.53;;
769;SDS011;368;48.698;9.116;2022-12-16T12:18:13;10.50;;;7.67;;
769;SDS011;368;48.698;9.116;2022-12-16T12:21:04;13.80;;;7.10;;
769;SDS011;368;48.698;9.116;2022-12-16T12:23:57;9.60;;;7.90;;
769;SDS011;368;48.698;9.116;2022-12-16T12:26:49;10.07;;;7.77;;
769;SDS011;368;48.698;9.116;2022-12-16T12:29:43;8.83;;;7.23;;
769;SDS011;368;48.698;9.116;2022-12-16T12:32:39;12.67;;;9.80;;
769;SDS011;368;48.698;9.116;2022-12-16T12:35:32;8.80;;;6.60;;
769;SDS011;368;48.698;9.116;2022-12-16T12:38:37;10.53;;;7.00;;
769;SDS011;368;48.698;9.116;2022-12-16T12:41:31;8.47;;;6.40;;
769;SDS011;368;48.698;9.116;2022-12-16T12:44:25;9.77;;;8.03;;
769;SDS011;368;48.698;9.116;2022-12-16T12:47:18;8.97;;;6.83;;
769;SDS011;368;48.698;9.116;2022-12-16T12:50:04;8.20;;;6.63;;
769;SDS011;368;48.698;9.116;2022-12-16T12:52:58;8.87;;;6.73;;
769;SDS011;368;48.698;9.116;2022-12-16T12:55:59;10.17;;;7.70;;
769;SDS011;368;48.698;9.116;2022-12-16T12:58:55;14.33;;;8.00;;
769;SDS011;368;48.698;9.116;2022-12-16T13:01:44;10.07;;;7.27;;
769;SDS011;368;48.698;9.116;2022-12-16T13:04:34;9.70;;;7.07;;
769;SDS011;368;48.698;9.116;2022-12-16T13:07:19;10.70;;;7.40;;
769;SDS011;368;48.698;9.116;2022-12-16T13:10:11;8.37;;;6.70;;
769;SDS011;368;48.698;9.116;2022-12-16T13:13:20;8.10;;;6.60;;
769;SDS011;368;48.698;9.116;2022-12-16T13:19:54;9.20;;;7.70;;
769;SDS011;368;48.698;9.116;2022-12-16T13:22:38;10.63;;;7.33;;
769;SDS011;368;48.698;9.116;2022-12-16T13:25:34;20.83;;;7.80;;
769;SDS011;368;48.698;9.116;2022-12-16T13:28:21;10.17;;;7.43;;
769;SDS011;368;48.698;9.116;2022-12-16T13:31:08;11.07;;;7.40;;
769;SDS011;368;48.698;9.116;2022-12-16T13:33:53;11.25;;;8.25;;
769;SDS011;368;48.698;9.116;2022-12-16T13:36:41;10.88;;;7.80;;
769;SDS011;368;48.698;9.116;2022-12-16T13:39:28;16.00;;;8.70;;
769;SDS011;368;48.698;9.116;2022-12-16T13:42:33;9.20;;;7.53;;
769;SDS011;368;48.698;9.116;2022-12-16T13:45:37;11.27;;;7.78;;
769;SDS011;368;48.698;9.116;2022-12-16T13:48:25;9.80;;;7.10;;
769;SDS011;368;48.698;9.116;2022-12-16T13:54:51;9.93;;;8.40;;
769;SDS011;368;48.698;9.116;2022-12-16T13:57:42;12.15;;;7.68;;
769;SDS011;368;48.698;9.116;2022-12-16T14:00:28;9.17;;;7.60;;
769;SDS011;368;48.698;9.116;2022-12-16T14:03:18;11.32;;;7.95;;
769;SDS011;368;48.698;9.116;2022-12-16T14:06:05;8.90;;;7.25;;
769;SDS011;368;48.698;9.116;2022-12-16T14:09:04;9.93;;;7.50;;
769;SDS011;368;48.698;9.116;2022-12-16T14:12:04;15.38;;;9.35;;
769;SDS011;368;48.698;9.116;2022-12-16T14:14:58;11.82;;;7.15;;
769;SDS011;368;48.698;9.116;2022-12-16T14:17:52;10.37;;;8.10;;
769;SDS011;368;48.698;9.116;2022-12-16T14:20:45;16.10;;;8.38;;
769;SDS011;368;48.698;9.116;2022-12-16T14:23:35;13.57;;;9.35;;
769;SDS011;368;48.698;9.116;2022-12-16T14:26:26;14.82;;;9.68;;
769;SDS011;368;48.698;9.116;2022-12-16T14:29:16;10.82;;;9.30;;
769;SDS011;368;48.698;9.116;2022-12-16T14:32:17;13.05;;;9.13;;
769;SDS011;368;48.698;9.116;2022-12-16T14:35:10;12.18;;;9.27;;
769;SDS011;368;48.698;9.116;2022-12-16T14:37:56;11.70;;;8.98;;
769;SDS011;368;48.698;9.116;2022-12-16T14:40:41;13.88;;;8.32;;
769;SDS011;368;48.698;9.116;2022-12-16T14:43:25;18.67;;;9.52;;
769;SDS011;368;48.698;9.116;2022-12-16T14:46:18;11.57;;;8.50;;
769;SDS011;368;48.698;9.116;2022-12-16T14:49:14;12.05;;;7.93;;
769;SDS011;368;48.698;9.116;2022-12-16T14:52:08;13.30;;;9.32;;
769;SDS011;368;48.698;9.116;2022-12-16T14:55:06;16.25;;;12.43;;
769;SDS011;368;48.698;9.116;2022-12-16T14:58:01;12.35;;;9.82;;
769;SDS011;368;48.698;9.116;2022-12-16T15:00:47;11.38;;;9.18;;
769;SDS011;368;48.698;9.116;2022-12-16T15:03:34;12.15;;;8.13;;
769;SDS011;368;48.698;9.116;2022-12-16T15:06:37;10.52;;;9.13;;
769;SDS011;368;48.698;9.116;2022-12-16T15:09:25;15.10;;;9.05;;
769;SDS011;368;48.698;9.116;2022-12-16T15:12:14;13.73;;;9.15;;
769;SDS011;368;48.698;9.116;2022-12-16T15:15:15;12.05;;;10.73;;
769;SDS011;368;48.698;9.116;2022-12-16T15:18:09;13.48;;;10.40;;
769;SDS011;368;48.698;9.116;2022-12-16T15:20:59;10.82;;;9.73;;
769;SDS011;368;48.698;9.116;2022-12-16T15:23:43;11.77;;;9.00;;
769;SDS011;368;48.698;9.116;2022-12-16T15:26:29;14.15;;;10.30;;
769;SDS011;368;48.698;9.116;2022-12-16T15:29:28;13.93;;;9.70;;
769;SDS011;368;48.698;9.116;2022-12-16T15:32:26;11.48;;;9.32;;
769;SDS011;368;48.698;9.116;2022-12-16T15:35:22;16.48;;;14.52;;
769;SDS011;368;48.698;9.116;2022-12-16T15:38:10;16.45;;;12.20;;
769;SDS011;368;48.698;9.116;2022-12-16T15:40:55;14.25;;;9.43;;
769;SDS011;368;48.698;9.116;2022-12-16T15:43:39;13.82;;;10.50;;
769;SDS011;368;48.698;9.116;2022-12-16T15:46:24;21.80;;;12.52;;
769;SDS011;368;48.698;9.116;2022-12-16T15:49:15;84.50;;;47.00;;
769;SDS011;368;48.698;9.116;2022-12-16T15:52:14;11.25;;;9.07;;
769;SDS011;368;48.698;9.116;2022-12-16T15:58:10;14.98;;;11.30;;
769;SDS011;368;48.698;9.116;2022-12-16T16:00:56;23.10;;;16.60;;
769;SDS011;368;48.698;9.116;2022-12-16T16:03:46;20.88;;;16.63;;
769;SDS011;368;48.698;9.116;2022-12-16T16:06:32;14.23;;;12.13;;
769;SDS011;368;48.698;9.116;2022-12-16T16:09:18;14.75;;;11.38;;
769;SDS011;368;48.698;9.116;2022-12-16T16:12:06;14.90;;;10.50;;
769;SDS011;368;48.698;9.116;2022-12-16T16:14:51;16.02;;;10.90;;
769;SDS011;368;48.698;9.116;2022-12-16T16:17:35;20.50;;;17.00;;
769;SDS011;368;48.698;9.116;2022-12-16T16:20:25;15.80;;;13.40;;
769;SDS011;368;48.698;9.116;2022-12-16T16:23:18;15.35;;;13.70;;
769;SDS011;368;48.698;9.116;2022-12-16T16:26:03;14.50;;;9.85;;
769;SDS011;368;48.698;9.116;2022-12-16T16:28:48;13.50;;;10.32;;
769;SDS011;368;48.698;9.116;2022-12-16T16:31:33;14.25;;;9.90;;
769;SDS011;368;48.698;9.116;2022-12-16T16:34:17;14.15;;;12.40;;
769;SDS011;368;48.698;9.116;2022-12-16T16:37:01;14.65;;;11.77;;
769;SDS011;368;48.698;9.116;2022-12-16T16:39:51;11.82;;;10.48;;
769;SDS011;368;48.698;9.116;2022-12-16T16:42:35;14.13;;;10.15;;
769;SDS011;368;48.698;9.116;2022-12-16T16:45:21;18.17;;;12.32;;
769;SDS011;368;48.698;9.116;2022-12-16T16:48:08;13.73;;;12.02;;
769;SDS011;368;48.698;9.116;2022-12-16T16:50:54;12.95;;;10.80;;
769;SDS011;368;48.698;9.116;2022-12-16T16:53:39;15.43;;;12.30;;
769;SDS011;368;48.698;9.116;2022-12-16T16:56:35;17.73;;;15.18;;
769;SDS011;368;48.698;9.116;2022-12-16T16:59:21;17.90;;;13.40;;
769;SDS011;368;48.698;9.116;2022-12-16T17:02:12;32.60;;;19.25;;
769;SDS011;368;48.698;9.116;2022-12-16T17:04:59;18.00;;;14.73;;
769;SDS011;368;48.698;9.116;2022-12-16T17:07:43;23.15;;;17.52;;
769;SDS011;368;48.698;9.116;2022-12-16T17:10:28;23.63;;;16.35;;
769;SDS011;368;48.698;9.116;2022-12-16T17:13:12;21.45;;;16.40;;
769;SDS011;368;48.698;9.116;2022-12-16T17:15:56;18.70;;;13.52;;